Time;durP1;ratioP1;P1;durP2;ratioP2;P2;SDS_P1;SDS_P2;PMS_P1;PMS_P2;Temp;Humidity;BMP_temperature;BMP_pressure;BME280_temperature;BME280_humidity;BME280_pressure;Samples;Min_cycle;Max_cycle;Signal;HPM_P1;HPM_P2
2020/09/25 00:00:49;;;;;;;3.05;2.55;;;;;;;14.28;100;93996.83;;;;
2020/09/25 00:01:50;;;;;;;3.05;2.55;;;;;;;14.28;100;93996.83;;;;
2020/09/25 00:02:50;;;;;;;3.05;2.55;;;;;;;14.28;100;93996.83;;;;
2020/09/25 00:03:51;;;;;;;3.05;2.55;;;;;;;14.28;100;93996.83;;;;
2020/09/25 00:04:51;;;;;;;3.05;2.55;;;;;;;14.28;100;93996.83;;;;
2020/09/25 00:05:52;;;;;;;3.05;2.55;;;;;;;14.28;100;93996.83;;;;
2020/09/25 00:06:52;;;;;;;3.75;2.55;;;;;;;14.09;100;93992.26;;;;
2020/09/25 00:07:54;;;;;;;3.75;2.55;;;;;;;14.09;100;93992.26;;;;
2020/09/25 00:08:54;;;;;;;3.75;2.55;;;;;;;14.09;100;93992.26;;;;
2020/09/25 00:09:55;;;;;;;3.75;2.55;;;;;;;14.09;100;93992.26;;;;
2020/09/25 00:10:55;;;;;;;3.75;2.55;;;;;;;14.09;100;93992.26;;;;
2020/09/25 00:11:56;;;;;;;3.75;2.55;;;;;;;14.09;100;93992.26;;;;
2020/09/25 00:12:56;;;;;;;3.75;2.55;;;;;;;14.09;100;93992.26;;;;
2020/09/25 00:13:57;;;;;;;3.75;2.55;;;;;;;14.09;100;93992.26;;;;
2020/09/25 00:14:57;;;;;;;3.75;2.55;;;;;;;14.09;100;93992.26;;;;
2020/09/25 00:15:58;;;;;;;3.75;2.55;;;;;;;14.09;100;93992.26;;;;
2020/09/25 00:16:58;;;;;;;3.75;2.55;;;;;;;14.09;100;93992.26;;;;
2020/09/25 00:17:59;;;;;;;3.75;2.3;;;;;;;13.92;100;93994.64;;;;
2020/09/25 00:18:59;;;;;;;3.75;2.3;;;;;;;13.92;100;93994.64;;;;
2020/09/25 00:20:00;;;;;;;3.75;2.3;;;;;;;13.92;100;93994.64;;;;
2020/09/25 00:21:00;;;;;;;3.75;2.3;;;;;;;13.92;100;93994.64;;;;
2020/09/25 00:22:01;;;;;;;3.75;2.3;;;;;;;13.92;100;93994.64;;;;
2020/09/25 00:23:01;;;;;;;3.75;2.3;;;;;;;13.92;100;93994.64;;;;
2020/09/25 00:24:02;;;;;;;3.75;2.3;;;;;;;13.92;100;93994.64;;;;
2020/09/25 00:25:02;;;;;;;3.75;2.3;;;;;;;13.92;100;93994.64;;;;
2020/09/25 00:26:03;;;;;;;3.75;2.3;;;;;;;13.92;100;93994.64;;;;
2020/09/25 00:27:03;;;;;;;3.75;2.3;;;;;;;13.92;100;93994.64;;;;
2020/09/25 00:28:03;;;;;;;4.15;3;;;;;;;13.72;100;93977.74;;;;
2020/09/25 00:29:04;;;;;;;4.15;3;;;;;;;13.72;100;93977.74;;;;
2020/09/25 00:30:05;;;;;;;4.15;3;;;;;;;13.72;100;93977.74;;;;
2020/09/25 00:31:05;;;;;;;4.15;3;;;;;;;13.72;100;93977.74;;;;
2020/09/25 00:32:06;;;;;;;4.15;3;;;;;;;13.72;100;93977.74;;;;
2020/09/25 00:33:06;;;;;;;4.15;3;;;;;;;13.72;100;93977.74;;;;
2020/09/25 00:34:07;;;;;;;4.15;3;;;;;;;13.72;100;93977.74;;;;
2020/09/25 00:35:07;;;;;;;4.15;3;;;;;;;13.72;100;93977.74;;;;
2020/09/25 00:36:08;;;;;;;4.15;3;;;;;;;13.72;100;93977.74;;;;
2020/09/25 00:37:08;;;;;;;4.15;3;;;;;;;13.72;100;93977.74;;;;
2020/09/25 00:38:09;;;;;;;4.15;3;;;;;;;13.72;100;93977.74;;;;
2020/09/25 00:39:10;;;;;;;3.6;2.7;;;;;;;13.65;100;93989.89;;;;
2020/09/25 00:40:10;;;;;;;3.6;2.7;;;;;;;13.65;100;93989.89;;;;
2020/09/25 00:41:11;;;;;;;3.6;2.7;;;;;;;13.65;100;93989.89;;;;
2020/09/25 00:42:11;;;;;;;3.6;2.7;;;;;;;13.65;100;93989.89;;;;
2020/09/25 00:43:12;;;;;;;3.6;2.7;;;;;;;13.65;100;93989.89;;;;
2020/09/25 00:44:12;;;;;;;3.6;2.7;;;;;;;13.65;100;93989.89;;;;
2020/09/25 00:45:12;;;;;;;3.6;2.7;;;;;;;13.65;100;93989.89;;;;
2020/09/25 00:46:13;;;;;;;3.6;2.7;;;;;;;13.65;100;93989.89;;;;
2020/09/25 00:47:24;;;;;;;3.6;2.7;;;;;;;13.65;100;93989.89;;;;
2020/09/25 00:48:25;;;;;;;3.6;2.7;;;;;;;13.65;100;93989.89;;;;
2020/09/25 00:49:25;;;;;;;3.45;2.7;;;;;;;13.57;100;93967.44;;;;
2020/09/25 00:50:26;;;;;;;3.45;2.7;;;;;;;13.57;100;93967.44;;;;
2020/09/25 00:51:27;;;;;;;3.45;2.7;;;;;;;13.57;100;93967.44;;;;
2020/09/25 00:52:27;;;;;;;3.45;2.7;;;;;;;13.57;100;93967.44;;;;
2020/09/25 00:53:28;;;;;;;3.45;2.7;;;;;;;13.57;100;93967.44;;;;
2020/09/25 00:54:28;;;;;;;3.45;2.7;;;;;;;13.57;100;93967.44;;;;
2020/09/25 00:55:29;;;;;;;3.45;2.7;;;;;;;13.57;100;93967.44;;;;
2020/09/25 00:56:29;;;;;;;3.45;2.7;;;;;;;13.57;100;93967.44;;;;
2020/09/25 00:57:30;;;;;;;3.45;2.7;;;;;;;13.57;100;93967.44;;;;
2020/09/25 00:58:30;;;;;;;3.45;2.7;;;;;;;13.57;100;93967.44;;;;
2020/09/25 00:59:31;;;;;;;3.45;2.7;;;;;;;13.57;100;93967.44;;;;
2020/09/25 01:00:32;;;;;;;3.6;2.35;;;;;;;13.56;100;93964.32;;;;
2020/09/25 01:01:33;;;;;;;3.6;2.35;;;;;;;13.56;100;93964.32;;;;
2020/09/25 01:02:34;;;;;;;3.6;2.35;;;;;;;13.56;100;93964.32;;;;
2020/09/25 01:03:35;;;;;;;3.6;2.35;;;;;;;13.56;100;93964.32;;;;
2020/09/25 01:04:36;;;;;;;3.6;2.35;;;;;;;13.56;100;93964.32;;;;
2020/09/25 01:05:36;;;;;;;3.6;2.35;;;;;;;13.56;100;93964.32;;;;
2020/09/25 01:06:37;;;;;;;3.6;2.35;;;;;;;13.56;100;93964.32;;;;
2020/09/25 01:07:37;;;;;;;3.6;2.35;;;;;;;13.56;100;93964.32;;;;
2020/09/25 01:08:41;;;;;;;3.6;2.35;;;;;;;13.56;100;93964.32;;;;
2020/09/25 01:09:53;;;;;;;3.6;2.35;;;;;;;13.56;100;93964.32;;;;
2020/09/25 01:10:53;;;;;;;3.25;2.65;;;;;;;13.51;100;93940.92;;;;
2020/09/25 01:11:54;;;;;;;3.25;2.65;;;;;;;13.51;100;93940.92;;;;
2020/09/25 01:12:55;;;;;;;3.25;2.65;;;;;;;13.51;100;93940.92;;;;
2020/09/25 01:13:55;;;;;;;3.25;2.65;;;;;;;13.51;100;93940.92;;;;
2020/09/25 01:14:56;;;;;;;3.25;2.65;;;;;;;13.51;100;93940.92;;;;
2020/09/25 01:15:57;;;;;;;3.25;2.65;;;;;;;13.51;100;93940.92;;;;
2020/09/25 01:16:57;;;;;;;3.25;2.65;;;;;;;13.51;100;93940.92;;;;
2020/09/25 01:17:59;;;;;;;3.25;2.65;;;;;;;13.51;100;93940.92;;;;
2020/09/25 01:18:59;;;;;;;3.25;2.65;;;;;;;13.51;100;93940.92;;;;
2020/09/25 01:20:00;;;;;;;3.25;2.65;;;;;;;13.51;100;93940.92;;;;
2020/09/25 01:21:00;;;;;;;3.25;2.65;;;;;;;13.51;100;93940.92;;;;
2020/09/25 01:22:13;;;;;;;3.7;2.55;;;;;;;13.53;100;93913.37;;;;
2020/09/25 01:23:13;;;;;;;3.7;2.55;;;;;;;13.53;100;93913.37;;;;
2020/09/25 01:24:14;;;;;;;3.7;2.55;;;;;;;13.53;100;93913.37;;;;
2020/09/25 01:25:14;;;;;;;3.7;2.55;;;;;;;13.53;100;93913.37;;;;
2020/09/25 01:26:15;;;;;;;3.7;2.55;;;;;;;13.53;100;93913.37;;;;
2020/09/25 01:27:15;;;;;;;3.7;2.55;;;;;;;13.53;100;93913.37;;;;
2020/09/25 01:28:16;;;;;;;3.7;2.55;;;;;;;13.53;100;93913.37;;;;
2020/09/25 01:29:16;;;;;;;3.7;2.55;;;;;;;13.53;100;93913.37;;;;
2020/09/25 01:30:17;;;;;;;3.7;2.55;;;;;;;13.53;100;93913.37;;;;
2020/09/25 01:31:17;;;;;;;3.7;2.55;;;;;;;13.53;100;93913.37;;;;
2020/09/25 01:32:18;;;;;;;4.1;2.75;;;;;;;13.49;100;93892.94;;;;
2020/09/25 01:33:19;;;;;;;4.1;2.75;;;;;;;13.49;100;93892.94;;;;
2020/09/25 01:34:19;;;;;;;4.1;2.75;;;;;;;13.49;100;93892.94;;;;
2020/09/25 01:35:20;;;;;;;4.1;2.75;;;;;;;13.49;100;93892.94;;;;
2020/09/25 01:36:20;;;;;;;4.1;2.75;;;;;;;13.49;100;93892.94;;;;
2020/09/25 01:37:21;;;;;;;4.1;2.75;;;;;;;13.49;100;93892.94;;;;
2020/09/25 01:38:22;;;;;;;4.1;2.75;;;;;;;13.49;100;93892.94;;;;
2020/09/25 01:39:22;;;;;;;4.1;2.75;;;;;;;13.49;100;93892.94;;;;
2020/09/25 01:40:23;;;;;;;4.1;2.75;;;;;;;13.49;100;93892.94;;;;
2020/09/25 01:41:23;;;;;;;4.1;2.75;;;;;;;13.49;100;93892.94;;;;
2020/09/25 01:42:24;;;;;;;4;2.55;;;;;;;13.47;100;93886.61;;;;
2020/09/25 01:43:24;;;;;;;4;2.55;;;;;;;13.47;100;93886.61;;;;
2020/09/25 01:44:25;;;;;;;4;2.55;;;;;;;13.47;100;93886.61;;;;
2020/09/25 01:45:25;;;;;;;4;2.55;;;;;;;13.47;100;93886.61;;;;
2020/09/25 01:46:26;;;;;;;4;2.55;;;;;;;13.47;100;93886.61;;;;
2020/09/25 01:47:26;;;;;;;4;2.55;;;;;;;13.47;100;93886.61;;;;
2020/09/25 01:48:27;;;;;;;4;2.55;;;;;;;13.47;100;93886.61;;;;
2020/09/25 01:49:27;;;;;;;4;2.55;;;;;;;13.47;100;93886.61;;;;
2020/09/25 01:50:28;;;;;;;4;2.55;;;;;;;13.47;100;93886.61;;;;
2020/09/25 01:51:28;;;;;;;4;2.55;;;;;;;13.47;100;93886.61;;;;
2020/09/25 01:52:29;;;;;;;4;2.55;;;;;;;13.47;100;93886.61;;;;
2020/09/25 01:53:29;;;;;;;3.9;2.75;;;;;;;13.35;100;93870.89;;;;
2020/09/25 01:54:30;;;;;;;3.9;2.75;;;;;;;13.35;100;93870.89;;;;
2020/09/25 01:55:30;;;;;;;3.9;2.75;;;;;;;13.35;100;93870.89;;;;
2020/09/25 01:56:31;;;;;;;3.9;2.75;;;;;;;13.35;100;93870.89;;;;
2020/09/25 01:57:31;;;;;;;3.9;2.75;;;;;;;13.35;100;93870.89;;;;
2020/09/25 01:58:32;;;;;;;3.9;2.75;;;;;;;13.35;100;93870.89;;;;
2020/09/25 01:59:32;;;;;;;3.9;2.75;;;;;;;13.35;100;93870.89;;;;
2020/09/25 02:00:33;;;;;;;3.9;2.75;;;;;;;13.35;100;93870.89;;;;
2020/09/25 02:01:33;;;;;;;3.9;2.75;;;;;;;13.35;100;93870.89;;;;
2020/09/25 02:02:34;;;;;;;3.9;2.75;;;;;;;13.35;100;93870.89;;;;
2020/09/25 02:03:34;;;;;;;3.9;2.75;;;;;;;13.35;100;93870.89;;;;
2020/09/25 02:04:35;;;;;;;3.85;2.8;;;;;;;13.27;100;93857;;;;
2020/09/25 02:05:36;;;;;;;3.85;2.8;;;;;;;13.27;100;93857;;;;
2020/09/25 02:06:36;;;;;;;3.85;2.8;;;;;;;13.27;100;93857;;;;
2020/09/25 02:07:37;;;;;;;3.85;2.8;;;;;;;13.27;100;93857;;;;
2020/09/25 02:08:37;;;;;;;3.85;2.8;;;;;;;13.27;100;93857;;;;
2020/09/25 02:09:38;;;;;;;3.85;2.8;;;;;;;13.27;100;93857;;;;
2020/09/25 02:10:38;;;;;;;3.85;2.8;;;;;;;13.27;100;93857;;;;
2020/09/25 02:11:39;;;;;;;3.85;2.8;;;;;;;13.27;100;93857;;;;
2020/09/25 02:12:39;;;;;;;3.85;2.8;;;;;;;13.27;100;93857;;;;
2020/09/25 02:13:40;;;;;;;3.85;2.8;;;;;;;13.27;100;93857;;;;
2020/09/25 02:14:40;;;;;;;4.1;3.1;;;;;;;13.14;100;93847.64;;;;
2020/09/25 02:15:41;;;;;;;4.1;3.1;;;;;;;13.14;100;93847.64;;;;
2020/09/25 02:16:41;;;;;;;4.1;3.1;;;;;;;13.14;100;93847.64;;;;
2020/09/25 02:17:42;;;;;;;4.1;3.1;;;;;;;13.14;100;93847.64;;;;
2020/09/25 02:18:42;;;;;;;4.1;3.1;;;;;;;13.14;100;93847.64;;;;
2020/09/25 02:19:43;;;;;;;4.1;3.1;;;;;;;13.14;100;93847.64;;;;
2020/09/25 02:20:44;;;;;;;4.1;3.1;;;;;;;13.14;100;93847.64;;;;
2020/09/25 02:21:44;;;;;;;4.1;3.1;;;;;;;13.14;100;93847.64;;;;
2020/09/25 02:22:45;;;;;;;4.1;3.1;;;;;;;13.14;100;93847.64;;;;
2020/09/25 02:23:45;;;;;;;4.1;3.1;;;;;;;13.14;100;93847.64;;;;
2020/09/25 02:24:46;;;;;;;4.1;3.1;;;;;;;13.14;100;93847.64;;;;
2020/09/25 02:25:46;;;;;;;3.2;2.900001;;;;;;;13.12;100;93816.91;;;;
2020/09/25 02:26:47;;;;;;;3.2;2.900001;;;;;;;13.12;100;93816.91;;;;
2020/09/25 02:27:47;;;;;;;3.2;2.900001;;;;;;;13.12;100;93816.91;;;;
2020/09/25 02:28:48;;;;;;;3.2;2.900001;;;;;;;13.12;100;93816.91;;;;
2020/09/25 02:29:48;;;;;;;3.2;2.900001;;;;;;;13.12;100;93816.91;;;;
2020/09/25 02:30:49;;;;;;;3.2;2.900001;;;;;;;13.12;100;93816.91;;;;
2020/09/25 02:31:49;;;;;;;3.2;2.900001;;;;;;;13.12;100;93816.91;;;;
2020/09/25 02:32:49;;;;;;;3.2;2.900001;;;;;;;13.12;100;93816.91;;;;
2020/09/25 02:33:50;;;;;;;3.2;2.900001;;;;;;;13.12;100;93816.91;;;;
2020/09/25 02:34:50;;;;;;;3.2;2.900001;;;;;;;13.12;100;93816.91;;;;
2020/09/25 02:35:51;;;;;;;4.549999;2.95;;;;;;;13.06;100;93805.84;;;;
2020/09/25 02:36:51;;;;;;;4.549999;2.95;;;;;;;13.06;100;93805.84;;;;
2020/09/25 02:37:52;;;;;;;4.549999;2.95;;;;;;;13.06;100;93805.84;;;;
2020/09/25 02:38:53;;;;;;;4.549999;2.95;;;;;;;13.06;100;93805.84;;;;
2020/09/25 02:39:53;;;;;;;4.549999;2.95;;;;;;;13.06;100;93805.84;;;;
2020/09/25 02:40:54;;;;;;;4.549999;2.95;;;;;;;13.06;100;93805.84;;;;
2020/09/25 02:41:55;;;;;;;4.549999;2.95;;;;;;;13.06;100;93805.84;;;;
2020/09/25 02:42:56;;;;;;;4.549999;2.95;;;;;;;13.06;100;93805.84;;;;
2020/09/25 02:43:56;;;;;;;4.549999;2.95;;;;;;;13.06;100;93805.84;;;;
2020/09/25 02:44:56;;;;;;;4.549999;2.95;;;;;;;13.06;100;93805.84;;;;
2020/09/25 02:45:57;;;;;;;4.549999;2.95;;;;;;;13.06;100;93805.84;;;;
2020/09/25 02:46:57;;;;;;;3.75;2.9;;;;;;;13.08;100;93830.35;;;;
2020/09/25 02:47:58;;;;;;;3.75;2.9;;;;;;;13.08;100;93830.35;;;;
2020/09/25 02:48:59;;;;;;;3.75;2.9;;;;;;;13.08;100;93830.35;;;;
2020/09/25 02:49:59;;;;;;;3.75;2.9;;;;;;;13.08;100;93830.35;;;;
2020/09/25 02:50:59;;;;;;;3.75;2.9;;;;;;;13.08;100;93830.35;;;;
2020/09/25 02:52:00;;;;;;;3.75;2.9;;;;;;;13.08;100;93830.35;;;;
2020/09/25 02:53:01;;;;;;;3.75;2.9;;;;;;;13.08;100;93830.35;;;;
2020/09/25 02:54:01;;;;;;;3.75;2.9;;;;;;;13.08;100;93830.35;;;;
2020/09/25 02:55:02;;;;;;;3.75;2.9;;;;;;;13.08;100;93830.35;;;;
2020/09/25 02:56:02;;;;;;;3.75;2.9;;;;;;;13.08;100;93830.35;;;;
2020/09/25 02:57:03;;;;;;;5.4;2.9;;;;;;;13.02;100;93828.64;;;;
2020/09/25 02:58:03;;;;;;;5.4;2.9;;;;;;;13.02;100;93828.64;;;;
2020/09/25 02:59:04;;;;;;;5.4;2.9;;;;;;;13.02;100;93828.64;;;;
2020/09/25 03:00:05;;;;;;;5.4;2.9;;;;;;;13.02;100;93828.64;;;;
2020/09/25 03:01:05;;;;;;;5.4;2.9;;;;;;;13.02;100;93828.64;;;;
2020/09/25 03:02:06;;;;;;;5.4;2.9;;;;;;;13.02;100;93828.64;;;;
2020/09/25 03:03:07;;;;;;;5.4;2.9;;;;;;;13.02;100;93828.64;;;;
2020/09/25 03:04:07;;;;;;;5.4;2.9;;;;;;;13.02;100;93828.64;;;;
2020/09/25 03:05:08;;;;;;;5.4;2.9;;;;;;;13.02;100;93828.64;;;;
2020/09/25 03:06:08;;;;;;;5.4;2.9;;;;;;;13.02;100;93828.64;;;;
2020/09/25 03:07:09;;;;;;;5.4;2.9;;;;;;;13.02;100;93828.64;;;;
2020/09/25 03:08:09;;;;;;;3.6;2.6;;;;;;;13.02;100;93780.84;;;;
2020/09/25 03:09:10;;;;;;;3.6;2.6;;;;;;;13.02;100;93780.84;;;;
2020/09/25 03:10:10;;;;;;;3.6;2.6;;;;;;;13.02;100;93780.84;;;;
2020/09/25 03:11:11;;;;;;;3.6;2.6;;;;;;;13.02;100;93780.84;;;;
2020/09/25 03:12:11;;;;;;;3.6;2.6;;;;;;;13.02;100;93780.84;;;;
2020/09/25 03:13:12;;;;;;;3.6;2.6;;;;;;;13.02;100;93780.84;;;;
2020/09/25 03:14:12;;;;;;;3.6;2.6;;;;;;;13.02;100;93780.84;;;;
2020/09/25 03:15:13;;;;;;;3.6;2.6;;;;;;;13.02;100;93780.84;;;;
2020/09/25 03:16:13;;;;;;;3.6;2.6;;;;;;;13.02;100;93780.84;;;;
2020/09/25 03:17:14;;;;;;;3.6;2.6;;;;;;;13.02;100;93780.84;;;;
2020/09/25 03:18:14;;;;;;;3.6;2.6;;;;;;;13.02;100;93780.84;;;;
2020/09/25 03:19:15;;;;;;;3.8;2.45;;;;;;;12.96;100;93790.48;;;;
2020/09/25 03:20:15;;;;;;;3.8;2.45;;;;;;;12.96;100;93790.48;;;;
2020/09/25 03:21:16;;;;;;;3.8;2.45;;;;;;;12.96;100;93790.48;;;;
2020/09/25 03:22:16;;;;;;;3.8;2.45;;;;;;;12.96;100;93790.48;;;;
2020/09/25 03:23:17;;;;;;;3.8;2.45;;;;;;;12.96;100;93790.48;;;;
2020/09/25 03:24:17;;;;;;;3.8;2.45;;;;;;;12.96;100;93790.48;;;;
2020/09/25 03:25:18;;;;;;;3.8;2.45;;;;;;;12.96;100;93790.48;;;;
2020/09/25 03:26:18;;;;;;;3.8;2.45;;;;;;;12.96;100;93790.48;;;;
2020/09/25 03:27:19;;;;;;;3.8;2.45;;;;;;;12.96;100;93790.48;;;;
2020/09/25 03:28:19;;;;;;;3.8;2.45;;;;;;;12.96;100;93790.48;;;;
2020/09/25 03:29:20;;;;;;;3.25;2.7;;;;;;;12.97;100;93784.5;;;;
2020/09/25 03:30:20;;;;;;;3.25;2.7;;;;;;;12.97;100;93784.5;;;;
2020/09/25 03:31:21;;;;;;;3.25;2.7;;;;;;;12.97;100;93784.5;;;;
2020/09/25 03:32:21;;;;;;;3.25;2.7;;;;;;;12.97;100;93784.5;;;;
2020/09/25 03:33:21;;;;;;;3.25;2.7;;;;;;;12.97;100;93784.5;;;;
2020/09/25 03:34:22;;;;;;;3.25;2.7;;;;;;;12.97;100;93784.5;;;;
2020/09/25 03:35:22;;;;;;;3.25;2.7;;;;;;;12.97;100;93784.5;;;;
2020/09/25 03:36:23;;;;;;;3.25;2.7;;;;;;;12.97;100;93784.5;;;;
2020/09/25 03:37:23;;;;;;;3.25;2.7;;;;;;;12.97;100;93784.5;;;;
2020/09/25 03:38:24;;;;;;;3.25;2.7;;;;;;;12.97;100;93784.5;;;;
2020/09/25 03:39:24;;;;;;;3.25;2.7;;;;;;;12.97;100;93784.5;;;;
2020/09/25 03:40:25;;;;;;;2.8;2.4;;;;;;;12.91;100;93767.11;;;;
2020/09/25 03:41:25;;;;;;;2.8;2.4;;;;;;;12.91;100;93767.11;;;;
2020/09/25 03:42:26;;;;;;;2.8;2.4;;;;;;;12.91;100;93767.11;;;;
2020/09/25 03:43:26;;;;;;;2.8;2.4;;;;;;;12.91;100;93767.11;;;;
2020/09/25 03:44:27;;;;;;;2.8;2.4;;;;;;;12.91;100;93767.11;;;;
2020/09/25 03:45:27;;;;;;;2.8;2.4;;;;;;;12.91;100;93767.11;;;;
2020/09/25 03:46:28;;;;;;;2.8;2.4;;;;;;;12.91;100;93767.11;;;;
2020/09/25 03:47:28;;;;;;;2.8;2.4;;;;;;;12.91;100;93767.11;;;;
2020/09/25 03:48:30;;;;;;;2.8;2.4;;;;;;;12.91;100;93767.11;;;;
2020/09/25 03:49:31;;;;;;;2.8;2.4;;;;;;;12.91;100;93767.11;;;;
2020/09/25 03:50:31;;;;;;;3.85;2.8;;;;;;;12.91;100;93769.42;;;;
2020/09/25 03:51:33;;;;;;;3.85;2.8;;;;;;;12.91;100;93769.42;;;;
2020/09/25 03:52:34;;;;;;;3.85;2.8;;;;;;;12.91;100;93769.42;;;;
2020/09/25 03:53:35;;;;;;;3.85;2.8;;;;;;;12.91;100;93769.42;;;;
2020/09/25 03:54:35;;;;;;;3.85;2.8;;;;;;;12.91;100;93769.42;;;;
2020/09/25 03:55:36;;;;;;;3.85;2.8;;;;;;;12.91;100;93769.42;;;;
2020/09/25 03:56:36;;;;;;;3.85;2.8;;;;;;;12.91;100;93769.42;;;;
2020/09/25 03:57:37;;;;;;;3.85;2.8;;;;;;;12.91;100;93769.42;;;;
2020/09/25 03:58:38;;;;;;;3.85;2.8;;;;;;;12.91;100;93769.42;;;;
2020/09/25 03:59:38;;;;;;;3.85;2.8;;;;;;;12.91;100;93769.42;;;;
2020/09/25 04:00:39;;;;;;;3.85;2.8;;;;;;;12.91;100;93769.42;;;;
2020/09/25 04:01:46;;;;;;;3.65;2.6;;;;;;;12.84;100;93742.64;;;;
2020/09/25 04:02:47;;;;;;;3.65;2.6;;;;;;;12.84;100;93742.64;;;;
2020/09/25 04:03:47;;;;;;;3.65;2.6;;;;;;;12.84;100;93742.64;;;;
2020/09/25 04:04:48;;;;;;;3.65;2.6;;;;;;;12.84;100;93742.64;;;;
2020/09/25 04:05:54;;;;;;;3.65;2.6;;;;;;;12.84;100;93742.64;;;;
2020/09/25 04:06:55;;;;;;;3.65;2.6;;;;;;;12.84;100;93742.64;;;;
2020/09/25 04:07:58;;;;;;;3.65;2.6;;;;;;;12.84;100;93742.64;;;;
2020/09/25 04:08:58;;;;;;;3.65;2.6;;;;;;;12.84;100;93742.64;;;;
2020/09/25 04:10:09;;;;;;;3.65;2.6;;;;;;;12.84;100;93742.64;;;;
2020/09/25 04:11:18;;;;;;;3.65;2.6;;;;;;;12.84;100;93742.64;;;;
2020/09/25 04:12:19;;;;;;;2.5;2.3;;;;;;;12.84;100;93729.27;;;;
2020/09/25 04:13:32;;;;;;;2.5;2.3;;;;;;;12.84;100;93729.27;;;;
2020/09/25 04:14:33;;;;;;;2.5;2.3;;;;;;;12.84;100;93729.27;;;;
2020/09/25 04:15:33;;;;;;;2.5;2.3;;;;;;;12.84;100;93729.27;;;;
2020/09/25 04:16:34;;;;;;;2.5;2.3;;;;;;;12.84;100;93729.27;;;;
2020/09/25 04:17:34;;;;;;;2.5;2.3;;;;;;;12.84;100;93729.27;;;;
2020/09/25 04:18:39;;;;;;;2.5;2.3;;;;;;;12.84;100;93729.27;;;;
2020/09/25 04:19:39;;;;;;;2.5;2.3;;;;;;;12.84;100;93729.27;;;;
2020/09/25 04:20:40;;;;;;;2.5;2.3;;;;;;;12.84;100;93729.27;;;;
2020/09/25 04:21:40;;;;;;;2.5;2.3;;;;;;;12.84;100;93729.27;;;;
2020/09/25 04:22:41;;;;;;;3;2.2;;;;;;;12.77;100;93727.86;;;;
2020/09/25 04:23:54;;;;;;;3;2.2;;;;;;;12.77;100;93727.86;;;;
2020/09/25 04:24:54;;;;;;;3;2.2;;;;;;;12.77;100;93727.86;;;;
2020/09/25 04:26:03;;;;;;;3;2.2;;;;;;;12.77;100;93727.86;;;;
2020/09/25 04:27:07;;;;;;;3;2.2;;;;;;;12.77;100;93727.86;;;;
2020/09/25 04:28:09;;;;;;;3;2.2;;;;;;;12.77;100;93727.86;;;;
2020/09/25 04:29:14;;;;;;;3;2.2;;;;;;;12.77;100;93727.86;;;;
2020/09/25 04:30:24;;;;;;;3;2.2;;;;;;;12.77;100;93727.86;;;;
2020/09/25 04:31:27;;;;;;;3;2.2;;;;;;;12.77;100;93727.86;;;;
2020/09/25 04:32:31;;;;;;;3;2.2;;;;;;;12.77;100;93727.86;;;;
2020/09/25 04:33:33;;;;;;;3;2.2;;;;;;;12.77;100;93727.86;;;;
2020/09/25 04:34:37;;;;;;;3;2.2;;;;;;;12.77;100;93727.86;;;;
2020/09/25 04:35:39;;;;;;;3;2.2;;;;;;;12.77;100;93727.86;;;;
2020/09/25 04:36:41;;;;;;;3;2.2;;;;;;;12.77;100;93727.86;;;;
2020/09/25 04:37:44;;;;;;;3;2.2;;;;;;;12.77;100;93727.86;;;;
2020/09/25 04:38:44;;;;;;;3;2.2;;;;;;;12.77;100;93727.86;;;;
2020/09/25 04:39:49;;;;;;;3;2.2;;;;;;;12.77;100;93727.86;;;;
2020/09/25 04:40:51;;;;;;;3;2.2;;;;;;;12.77;100;93727.86;;;;
2020/09/25 04:41:52;;;;;;;3;2.2;;;;;;;12.77;100;93727.86;;;;
2020/09/25 04:42:53;;;;;;;3;2.2;;;;;;;12.77;100;93727.86;;;;
2020/09/25 04:43:59;;;;;;;3;2.2;;;;;;;12.77;100;93727.86;;;;
2020/09/25 04:45:08;;;;;;;3.8;2.35;;;;;;;12.71;100;93715.05;;;;
2020/09/25 04:46:09;;;;;;;3.8;2.35;;;;;;;12.71;100;93715.05;;;;
2020/09/25 04:47:10;;;;;;;3.8;2.35;;;;;;;12.71;100;93715.05;;;;
2020/09/25 04:48:10;;;;;;;3.8;2.35;;;;;;;12.71;100;93715.05;;;;
2020/09/25 04:49:11;;;;;;;3.8;2.35;;;;;;;12.71;100;93715.05;;;;
2020/09/25 04:50:11;;;;;;;3.8;2.35;;;;;;;12.71;100;93715.05;;;;
2020/09/25 04:51:12;;;;;;;3.8;2.35;;;;;;;12.71;100;93715.05;;;;
2020/09/25 04:52:15;;;;;;;3.8;2.35;;;;;;;12.71;100;93715.05;;;;
2020/09/25 04:53:16;;;;;;;3.8;2.35;;;;;;;12.71;100;93715.05;;;;
2020/09/25 04:54:19;;;;;;;3.8;2.35;;;;;;;12.71;100;93715.05;;;;
2020/09/25 04:55:25;;;;;;;3;2.25;;;;;;;12.73;100;93711.5;;;;
2020/09/25 04:56:26;;;;;;;3;2.25;;;;;;;12.73;100;93711.5;;;;
2020/09/25 04:57:28;;;;;;;3;2.25;;;;;;;12.73;100;93711.5;;;;
2020/09/25 04:58:31;;;;;;;3;2.25;;;;;;;12.73;100;93711.5;;;;
2020/09/25 04:59:31;;;;;;;3;2.25;;;;;;;12.73;100;93711.5;;;;
2020/09/25 05:00:37;;;;;;;3;2.25;;;;;;;12.73;100;93711.5;;;;
2020/09/25 05:01:38;;;;;;;3;2.25;;;;;;;12.73;100;93711.5;;;;
2020/09/25 05:02:43;;;;;;;3;2.25;;;;;;;12.73;100;93711.5;;;;
2020/09/25 05:03:44;;;;;;;3;2.25;;;;;;;12.73;100;93711.5;;;;
2020/09/25 05:04:44;;;;;;;3;2.25;;;;;;;12.73;100;93711.5;;;;
2020/09/25 05:05:46;;;;;;;3;2.25;;;;;;;12.73;100;93711.5;;;;
2020/09/25 05:06:46;;;;;;;3;2.25;;;;;;;12.73;100;93711.5;;;;
2020/09/25 05:07:47;;;;;;;3;2.25;;;;;;;12.73;100;93711.5;;;;
2020/09/25 05:08:47;;;;;;;3;2.25;;;;;;;12.73;100;93711.5;;;;
2020/09/25 05:09:49;;;;;;;3;2.25;;;;;;;12.73;100;93711.5;;;;
2020/09/25 05:10:51;;;;;;;3;2.25;;;;;;;12.73;100;93711.5;;;;
2020/09/25 05:12:08;;;;;;;3;2.25;;;;;;;12.73;100;93711.5;;;;
2020/09/25 05:13:09;;;;;;;3;2.25;;;;;;;12.73;100;93711.5;;;;
2020/09/25 05:14:17;;;;;;;3;2.25;;;;;;;12.73;100;93711.5;;;;
2020/09/25 05:15:17;;;;;;;3;2.25;;;;;;;12.73;100;93711.5;;;;
2020/09/25 05:16:27;;;;;;;4.95;2.3;;;;;;;12.64;100;93674.38;;;;
2020/09/25 05:17:28;;;;;;;4.95;2.3;;;;;;;12.64;100;93674.38;;;;
2020/09/25 05:18:28;;;;;;;4.95;2.3;;;;;;;12.64;100;93674.38;;;;
2020/09/25 05:19:40;;;;;;;4.95;2.3;;;;;;;12.64;100;93674.38;;;;
2020/09/25 05:20:44;;;;;;;4.95;2.3;;;;;;;12.64;100;93674.38;;;;
2020/09/25 05:21:46;;;;;;;4.95;2.3;;;;;;;12.64;100;93674.38;;;;
2020/09/25 05:22:46;;;;;;;4.95;2.3;;;;;;;12.64;100;93674.38;;;;
2020/09/25 05:23:47;;;;;;;4.95;2.3;;;;;;;12.64;100;93674.38;;;;
2020/09/25 05:24:47;;;;;;;4.95;2.3;;;;;;;12.64;100;93674.38;;;;
2020/09/25 05:25:48;;;;;;;4.95;2.3;;;;;;;12.64;100;93674.38;;;;
2020/09/25 05:26:48;;;;;;;4.95;2.3;;;;;;;12.64;100;93674.38;;;;
2020/09/25 05:27:49;;;;;;;3.95;2.35;;;;;;;12.56;100;93664.97;;;;
2020/09/25 05:28:49;;;;;;;3.95;2.35;;;;;;;12.56;100;93664.97;;;;
2020/09/25 05:29:50;;;;;;;3.95;2.35;;;;;;;12.56;100;93664.97;;;;
2020/09/25 05:30:55;;;;;;;3.95;2.35;;;;;;;12.56;100;93664.97;;;;
2020/09/25 05:31:55;;;;;;;3.95;2.35;;;;;;;12.56;100;93664.97;;;;
2020/09/25 05:32:56;;;;;;;3.95;2.35;;;;;;;12.56;100;93664.97;;;;
2020/09/25 05:33:56;;;;;;;3.95;2.35;;;;;;;12.56;100;93664.97;;;;
2020/09/25 05:35:01;;;;;;;3.95;2.35;;;;;;;12.56;100;93664.97;;;;
2020/09/25 05:36:02;;;;;;;3.95;2.35;;;;;;;12.56;100;93664.97;;;;
2020/09/25 05:37:03;;;;;;;3.95;2.35;;;;;;;12.56;100;93664.97;;;;
2020/09/25 05:38:03;;;;;;;3.6;2.25;;;;;;;12.58;100;93676.86;;;;
2020/09/25 05:39:05;;;;;;;3.6;2.25;;;;;;;12.58;100;93676.86;;;;
2020/09/25 05:40:17;;;;;;;3.6;2.25;;;;;;;12.58;100;93676.86;;;;
2020/09/25 05:41:17;;;;;;;3.6;2.25;;;;;;;12.58;100;93676.86;;;;
2020/09/25 05:42:18;;;;;;;3.6;2.25;;;;;;;12.58;100;93676.86;;;;
2020/09/25 05:43:20;;;;;;;3.6;2.25;;;;;;;12.58;100;93676.86;;;;
2020/09/25 05:44:28;;;;;;;3.6;2.25;;;;;;;12.58;100;93676.86;;;;
2020/09/25 05:45:29;;;;;;;3.6;2.25;;;;;;;12.58;100;93676.86;;;;
2020/09/25 05:46:30;;;;;;;3.6;2.25;;;;;;;12.58;100;93676.86;;;;
2020/09/25 05:47:30;;;;;;;3.6;2.25;;;;;;;12.58;100;93676.86;;;;
2020/09/25 05:48:32;;;;;;;3.65;2.2;;;;;;;12.51;100;93680.87;;;;
2020/09/25 05:49:32;;;;;;;3.65;2.2;;;;;;;12.51;100;93680.87;;;;
2020/09/25 05:50:38;;;;;;;3.65;2.2;;;;;;;12.51;100;93680.87;;;;
2020/09/25 05:51:38;;;;;;;3.65;2.2;;;;;;;12.51;100;93680.87;;;;
2020/09/25 05:52:39;;;;;;;3.65;2.2;;;;;;;12.51;100;93680.87;;;;
2020/09/25 05:53:40;;;;;;;3.65;2.2;;;;;;;12.51;100;93680.87;;;;
2020/09/25 05:54:40;;;;;;;3.65;2.2;;;;;;;12.51;100;93680.87;;;;
2020/09/25 05:55:41;;;;;;;3.65;2.2;;;;;;;12.51;100;93680.87;;;;
2020/09/25 05:56:41;;;;;;;3.65;2.2;;;;;;;12.51;100;93680.87;;;;
2020/09/25 05:57:42;;;;;;;3.65;2.2;;;;;;;12.51;100;93680.87;;;;
2020/09/25 05:58:42;;;;;;;3.65;2.2;;;;;;;12.51;100;93680.87;;;;
2020/09/25 05:59:45;;;;;;;3.6;2.5;;;;;;;12.52;100;93680.17;;;;
2020/09/25 06:00:45;;;;;;;3.6;2.5;;;;;;;12.52;100;93680.17;;;;
2020/09/25 06:01:52;;;;;;;3.6;2.5;;;;;;;12.52;100;93680.17;;;;
2020/09/25 06:02:54;;;;;;;3.6;2.5;;;;;;;12.52;100;93680.17;;;;
2020/09/25 06:03:58;;;;;;;3.6;2.5;;;;;;;12.52;100;93680.17;;;;
2020/09/25 06:05:01;;;;;;;3.6;2.5;;;;;;;12.52;100;93680.17;;;;
2020/09/25 06:06:01;;;;;;;3.6;2.5;;;;;;;12.52;100;93680.17;;;;
2020/09/25 06:07:02;;;;;;;3.6;2.5;;;;;;;12.52;100;93680.17;;;;
2020/09/25 06:08:12;;;;;;;3.6;2.5;;;;;;;12.52;100;93680.17;;;;
2020/09/25 06:09:17;;;;;;;3.6;2.5;;;;;;;12.52;100;93680.17;;;;
2020/09/25 06:10:21;;;;;;;4.650001;2.35;;;;;;;12.48;100;93672.92;;;;
2020/09/25 06:11:22;;;;;;;4.650001;2.35;;;;;;;12.48;100;93672.92;;;;
2020/09/25 06:12:23;;;;;;;4.650001;2.35;;;;;;;12.48;100;93672.92;;;;
2020/09/25 06:13:28;;;;;;;4.650001;2.35;;;;;;;12.48;100;93672.92;;;;
2020/09/25 06:14:29;;;;;;;4.650001;2.35;;;;;;;12.48;100;93672.92;;;;
2020/09/25 06:15:30;;;;;;;4.650001;2.35;;;;;;;12.48;100;93672.92;;;;
2020/09/25 06:16:31;;;;;;;4.650001;2.35;;;;;;;12.48;100;93672.92;;;;
2020/09/25 06:17:31;;;;;;;4.650001;2.35;;;;;;;12.48;100;93672.92;;;;
2020/09/25 06:18:33;;;;;;;4.650001;2.35;;;;;;;12.48;100;93672.92;;;;
2020/09/25 06:19:34;;;;;;;4.650001;2.35;;;;;;;12.48;100;93672.92;;;;
2020/09/25 06:20:35;;;;;;;4.1;2.5;;;;;;;12.48;100;93690.52;;;;
2020/09/25 06:21:35;;;;;;;4.1;2.5;;;;;;;12.48;100;93690.52;;;;